createdAt,value
2018-05-31T00:00:41.886Z,93763.94
2018-05-31T00:03:10.328Z,93756.21
2018-05-31T00:05:38.787Z,93748.69
2018-05-31T00:08:07.224Z,93754.88
2018-05-31T00:10:35.585Z,93761.74
2018-05-31T00:13:03.965Z,93762.28
2018-05-31T00:15:32.346Z,93760.49
2018-05-31T00:18:00.823Z,93759.36
2018-05-31T00:20:29.235Z,93760.34
2018-05-31T00:22:57.571Z,93761.52
2018-05-31T00:25:25.947Z,93768.95
2018-05-31T00:27:54.311Z,93774.31
2018-05-31T00:30:22.663Z,93774.68
2018-05-31T00:32:51.119Z,93783.67
2018-05-31T00:35:19.490Z,93785.47
2018-05-31T00:37:48.145Z,93788.30
2018-05-31T00:40:16.494Z,93795.13
2018-05-31T00:42:44.836Z,93793.39
2018-05-31T00:45:13.355Z,93797.64
2018-05-31T00:47:41.735Z,93803.04
2018-05-31T00:50:10.129Z,93802.03
2018-05-31T00:52:38.770Z,93798.06
2018-05-31T00:55:07.067Z,93791.88
2018-05-31T00:57:35.379Z,93794.53
2018-05-31T01:00:03.875Z,93791.48
2018-05-31T01:02:32.276Z,93793.22
2018-05-31T01:05:00.558Z,93785.39
2018-05-31T01:07:28.946Z,93781.53
2018-05-31T01:09:57.458Z,93771.91
2018-05-31T01:12:25.745Z,93761.66
2018-05-31T01:14:54.081Z,93754.00
2018-05-31T01:17:22.902Z,93750.84
2018-05-31T01:19:51.200Z,93750.94
2018-05-31T01:22:19.444Z,93751.92
2018-05-31T01:24:47.679Z,93752.80
2018-05-31T01:27:15.994Z,93756.62
2018-05-31T01:29:44.118Z,93745.44
2018-05-31T01:32:12.248Z,93746.55
2018-05-31T01:34:40.520Z,93742.50
2018-05-31T01:37:08.880Z,93734.38
2018-05-31T01:39:37.246Z,93736.33
2018-05-31T01:42:05.628Z,93733.00
2018-05-31T01:44:34.039Z,93728.13
2018-05-31T01:47:02.295Z,93732.30
2018-05-31T01:49:30.681Z,93722.22
2018-05-31T01:51:59.078Z,93713.45
2018-05-31T01:54:27.431Z,93718.23
2018-05-31T01:56:55.759Z,93718.77
2018-05-31T01:59:24.139Z,93714.63
2018-05-31T02:01:52.487Z,93705.34
2018-05-31T02:04:20.821Z,93707.56
2018-05-31T02:06:49.195Z,93710.03
2018-05-31T02:09:17.479Z,93704.53
2018-05-31T02:11:45.759Z,93700.52
2018-05-31T02:14:14.970Z,93700.23
2018-05-31T02:16:43.352Z,93707.81
2018-05-31T02:19:11.782Z,93701.25
2018-05-31T02:21:40.139Z,93701.76
2018-05-31T02:24:08.459Z,93708.34
2018-05-31T02:26:36.749Z,93716.92
2018-05-31T02:29:05.046Z,93717.66
2018-05-31T02:31:33.280Z,93719.38
2018-05-31T02:34:01.629Z,93719.09
2018-05-31T02:36:31.814Z,93717.94
2018-05-31T02:39:00.131Z,93723.84
2018-05-31T02:41:28.483Z,93719.63
2018-05-31T02:43:56.788Z,93724.98
2018-05-31T02:46:25.068Z,93720.07
2018-05-31T02:48:53.414Z,93720.55
2018-05-31T02:51:21.823Z,93725.67
2018-05-31T02:53:50.123Z,93718.24
2018-05-31T02:56:18.411Z,93725.12
2018-05-31T02:58:46.679Z,93720.97
2018-05-31T03:01:15.103Z,93725.19
2018-05-31T03:03:43.439Z,93723.84
2018-05-31T03:06:11.851Z,93719.89
2018-05-31T03:08:40.240Z,93722.77
2018-05-31T03:11:08.551Z,93719.09
2018-05-31T03:13:37.031Z,93717.21
2018-05-31T03:16:05.571Z,93710.01
2018-05-31T03:18:33.958Z,93705.34
2018-05-31T03:21:02.373Z,93702.08
2018-05-31T03:23:30.724Z,93698.73
2018-05-31T03:25:58.974Z,93704.02
2018-05-31T03:28:27.263Z,93702.00
2018-05-31T03:30:55.532Z,93695.87
2018-05-31T03:33:24.208Z,93697.81
2018-05-31T03:35:52.551Z,93692.16
2018-05-31T03:38:20.859Z,93700.21
2018-05-31T03:40:49.202Z,93702.86
2018-05-31T03:43:17.516Z,93701.77
2018-05-31T03:45:45.859Z,93695.45
2018-05-31T03:48:14.166Z,93698.39
2018-05-31T03:50:42.752Z,93695.23
2018-05-31T03:53:11.083Z,93696.44
2018-05-31T03:55:39.419Z,93694.19
2018-05-31T03:58:07.687Z,93690.54
2018-05-31T04:00:35.955Z,93694.72
2018-05-31T04:03:04.219Z,93692.44
2018-05-31T04:05:32.558Z,93685.19
2018-05-31T04:08:00.960Z,93679.89
2018-05-31T04:10:29.266Z,93688.72
2018-05-31T04:12:57.652Z,93691.87
2018-05-31T04:15:25.822Z,93681.91
2018-05-31T04:17:54.068Z,93680.04
2018-05-31T04:20:22.375Z,93679.05
2018-05-31T04:22:50.728Z,93676.91
2018-05-31T04:25:19.049Z,93675.17
2018-05-31T04:27:47.426Z,93675.47
2018-05-31T04:30:15.688Z,93678.14
2018-05-31T04:32:44.107Z,93686.73
2018-05-31T04:35:12.440Z,93686.02
2018-05-31T04:37:40.823Z,93694.38
2018-05-31T04:40:09.808Z,93684.63
2018-05-31T04:42:38.119Z,93682.17
2018-05-31T04:45:06.436Z,93683.73
2018-05-31T04:47:34.722Z,93689.52
2018-05-31T04:50:03.032Z,93694.80
2018-05-31T04:52:31.322Z,93687.47
2018-05-31T04:54:59.976Z,93692.56
2018-05-31T04:57:28.212Z,93701.12
2018-05-31T04:59:56.496Z,93703.76
2018-05-31T05:02:24.763Z,93704.34
2018-05-31T05:04:53.049Z,93695.56
2018-05-31T05:07:21.341Z,93690.76
2018-05-31T05:09:49.610Z,93694.52
2018-05-31T05:12:17.795Z,93695.97
2018-05-31T05:14:46.054Z,93700.00
2018-05-31T05:17:14.295Z,93697.75
2018-05-31T05:19:42.479Z,93698.54
2018-05-31T05:22:10.680Z,93704.36
2018-05-31T05:24:38.915Z,93715.45
2018-05-31T05:27:07.142Z,93718.78
2018-05-31T05:29:35.311Z,93720.44
2018-05-31T05:32:03.882Z,93717.96
2018-05-31T05:34:32.060Z,93714.76
2018-05-31T05:37:00.283Z,93720.42
2018-05-31T05:39:28.419Z,93713.52
2018-05-31T05:41:56.650Z,93722.27
2018-05-31T05:44:24.873Z,93727.84
2018-05-31T05:46:53.070Z,93736.66
2018-05-31T05:49:21.227Z,93738.20
2018-05-31T05:51:49.413Z,93742.71
2018-05-31T05:54:17.550Z,93747.01
2018-05-31T05:56:45.716Z,93737.66
2018-05-31T05:59:13.935Z,93739.58
2018-05-31T06:01:42.179Z,93732.48
2018-05-31T06:04:10.348Z,93734.58
2018-05-31T06:06:38.607Z,93727.42
2018-05-31T06:09:06.843Z,93732.97
2018-05-31T06:11:35.062Z,93736.20
2018-05-31T06:14:03.460Z,93753.67
2018-05-31T06:16:31.659Z,93749.64
2018-05-31T06:18:59.843Z,93746.42
2018-05-31T06:21:28.051Z,93732.15
2018-05-31T06:23:56.334Z,93734.39
2018-05-31T06:26:24.555Z,93733.58
2018-05-31T06:28:52.859Z,93738.45
2018-05-31T06:31:20.983Z,93731.97
2018-05-31T06:33:49.160Z,93733.70
2018-05-31T06:36:17.629Z,93736.77
2018-05-31T06:38:45.788Z,93737.64
2018-05-31T06:41:13.976Z,93740.41
2018-05-31T06:43:42.478Z,93742.84
2018-05-31T06:46:11.154Z,93740.16
2018-05-31T06:48:39.335Z,93739.36
2018-05-31T06:51:07.523Z,93749.52
2018-05-31T06:53:35.786Z,93750.87
2018-05-31T06:56:03.998Z,93751.28
2018-05-31T06:58:33.129Z,93755.38
2018-05-31T07:01:01.270Z,93750.20
2018-05-31T07:03:29.519Z,93755.84
2018-05-31T07:05:57.773Z,93750.59
2018-05-31T07:08:25.984Z,93752.44
2018-05-31T07:10:54.622Z,93747.05
2018-05-31T07:13:22.946Z,93749.78
2018-05-31T07:15:51.273Z,93749.02
2018-05-31T07:18:19.575Z,93750.77
2018-05-31T07:20:47.914Z,93747.27
2018-05-31T07:23:16.168Z,93744.16
2018-05-31T07:25:44.491Z,93740.86
2018-05-31T07:28:12.974Z,93745.88
2018-05-31T07:30:41.280Z,93741.05
2018-05-31T07:33:09.721Z,93749.06
2018-05-31T07:35:38.277Z,93746.54
2018-05-31T07:38:06.643Z,93744.55
2018-05-31T07:40:35.157Z,93753.87
2018-05-31T07:43:03.363Z,93766.92
2018-05-31T07:45:31.613Z,93764.25
2018-05-31T07:48:00.035Z,93759.86
2018-05-31T07:50:28.306Z,93762.55
2018-05-31T07:52:56.531Z,93760.31
2018-05-31T07:55:24.839Z,93772.40
2018-05-31T07:57:52.978Z,93772.80
2018-05-31T08:00:21.321Z,93769.13
2018-05-31T08:02:49.691Z,93773.25
2018-05-31T08:05:17.951Z,93772.28
2018-05-31T08:07:46.055Z,93772.16
2018-05-31T08:10:14.573Z,93776.73
2018-05-31T08:12:42.801Z,93775.16
2018-05-31T08:15:10.992Z,93777.02
2018-05-31T08:17:39.455Z,93779.83
2018-05-31T08:20:07.740Z,93773.88
2018-05-31T08:22:35.867Z,93769.23
2018-05-31T08:25:04.169Z,93773.14
2018-05-31T08:27:32.394Z,93776.70
2018-05-31T08:30:00.595Z,93782.42
2018-05-31T08:32:28.847Z,93775.78
2018-05-31T08:34:57.096Z,93781.31
2018-05-31T08:37:25.428Z,93779.06
2018-05-31T08:39:53.742Z,93788.51
2018-05-31T08:42:22.047Z,93794.45
2018-05-31T08:44:50.368Z,93799.49
2018-05-31T08:47:18.639Z,93795.27
2018-05-31T08:49:46.860Z,93795.97
2018-05-31T08:52:15.165Z,93792.30
2018-05-31T08:54:43.415Z,93796.70
2018-05-31T08:57:11.910Z,93787.27
2018-05-31T08:59:40.127Z,93794.86
2018-05-31T09:02:08.357Z,93799.72
2018-05-31T09:04:36.552Z,93800.72
2018-05-31T09:07:04.722Z,93799.06
2018-05-31T09:09:32.891Z,93798.82
2018-05-31T09:12:01.219Z,93796.66
2018-05-31T09:14:29.418Z,93797.92
2018-05-31T09:16:57.595Z,93799.37
2018-05-31T09:19:26.163Z,93798.95
2018-05-31T09:21:54.400Z,93792.88
2018-05-31T09:24:22.528Z,93794.28
2018-05-31T09:26:50.774Z,93797.79
2018-05-31T09:29:18.911Z,93795.55
2018-05-31T09:31:47.071Z,93792.25
2018-05-31T09:34:15.362Z,93791.44
2018-05-31T09:36:43.619Z,93798.03
2018-05-31T09:39:12.520Z,93802.13
2018-05-31T09:41:40.688Z,93796.66
2018-05-31T09:44:08.859Z,93792.19
2018-05-31T09:46:36.965Z,93794.76
2018-05-31T09:49:05.166Z,93793.75
2018-05-31T09:51:33.309Z,93787.16
2018-05-31T09:54:01.566Z,93783.40
2018-05-31T09:56:30.331Z,93788.16
2018-05-31T09:58:58.491Z,93787.49
2018-05-31T10:01:26.646Z,93786.34
2018-05-31T10:03:54.869Z,93781.72
2018-05-31T10:06:23.045Z,93777.73
2018-05-31T10:08:51.223Z,93773.37
2018-05-31T10:11:19.357Z,93775.26
2018-05-31T10:13:47.511Z,93787.41
2018-05-31T10:16:15.883Z,93776.27
2018-05-31T10:18:43.968Z,93772.97
2018-05-31T10:21:12.082Z,93767.66
2018-05-31T10:23:40.269Z,93767.42
2018-05-31T10:26:08.457Z,93766.47
2018-05-31T10:28:36.546Z,93765.22
2018-05-31T10:31:04.723Z,93766.77
2018-05-31T10:33:33.031Z,93774.84
2018-05-31T10:36:01.103Z,93767.69
2018-05-31T10:38:29.199Z,93779.63
2018-05-31T10:40:57.360Z,93772.69
2018-05-31T10:43:25.575Z,93773.58
2018-05-31T10:45:53.643Z,93771.14
2018-05-31T10:48:21.743Z,93780.84
2018-05-31T10:50:49.860Z,93778.04
2018-05-31T10:53:18.008Z,93787.31
2018-05-31T10:55:46.174Z,93782.42
2018-05-31T10:58:14.299Z,93780.30
2018-05-31T11:00:42.380Z,93784.11
2018-05-31T11:03:10.820Z,93777.62
2018-05-31T11:05:38.960Z,93777.16
2018-05-31T11:08:07.051Z,93775.42
2018-05-31T11:10:35.208Z,93774.34
2018-05-31T11:13:03.328Z,93770.00
2018-05-31T11:15:31.512Z,93777.84
2018-05-31T11:17:59.678Z,93776.95
2018-05-31T11:20:27.731Z,93773.48
2018-05-31T11:22:55.860Z,93768.28
2018-05-31T11:25:23.992Z,93759.39
2018-05-31T11:27:52.119Z,93764.99
2018-05-31T11:30:20.319Z,93773.28
2018-05-31T11:32:48.471Z,93797.25
2018-05-31T11:35:16.839Z,93794.95
2018-05-31T11:37:45.271Z,93799.23
2018-05-31T11:40:13.623Z,93795.67
2018-05-31T11:42:41.979Z,93795.23
2018-05-31T11:45:10.338Z,93796.11
2018-05-31T11:47:38.727Z,93797.63
2018-05-31T11:50:07.119Z,93800.53
2018-05-31T11:52:35.482Z,93790.08
2018-05-31T11:55:03.840Z,93784.73
2018-05-31T11:57:32.375Z,93788.29
2018-05-31T12:00:00.747Z,93778.30
2018-05-31T12:02:29.127Z,93763.28
2018-05-31T12:04:57.475Z,93763.97
2018-05-31T12:07:25.816Z,93766.39
2018-05-31T12:09:54.193Z,93767.97
2018-05-31T12:12:22.626Z,93762.09
2018-05-31T12:14:51.030Z,93769.09
2018-05-31T12:17:19.477Z,93766.06
2018-05-31T12:19:47.842Z,93765.00
2018-05-31T12:22:16.317Z,93756.20
2018-05-31T12:24:44.700Z,93763.50
2018-05-31T12:27:13.080Z,93772.05
2018-05-31T12:29:41.444Z,93777.95
2018-05-31T12:32:09.838Z,93786.98
2018-05-31T12:34:39.242Z,93778.09
2018-05-31T12:37:07.602Z,93775.94
2018-05-31T12:39:35.963Z,93767.03
2018-05-31T12:42:04.358Z,93772.16
2018-05-31T12:44:32.720Z,93772.94
2018-05-31T12:47:01.099Z,93768.16
2018-05-31T12:49:29.479Z,93775.89
2018-05-31T12:51:57.912Z,93784.22
2018-05-31T12:54:26.304Z,93777.76
2018-05-31T12:56:54.679Z,93777.84
2018-05-31T12:59:23.056Z,93772.89
2018-05-31T13:01:51.422Z,93779.17
2018-05-31T13:04:20.060Z,93765.30
2018-05-31T13:06:48.445Z,93765.20
2018-05-31T13:09:16.842Z,93759.66
2018-05-31T13:11:45.261Z,93765.02
2018-05-31T13:14:13.702Z,93763.22
2018-05-31T13:16:42.100Z,93766.50
2018-05-31T13:19:10.492Z,93761.13
2018-05-31T13:21:38.887Z,93759.81
2018-05-31T13:24:07.267Z,93751.13
2018-05-31T13:26:35.670Z,93755.02
2018-05-31T13:29:04.092Z,93741.20
2018-05-31T13:31:32.498Z,93736.86
2018-05-31T13:34:00.947Z,93735.63
2018-05-31T13:36:29.636Z,93728.16
2018-05-31T13:38:58.008Z,93727.09
2018-05-31T13:41:26.359Z,93725.92
2018-05-31T13:43:54.749Z,93719.22
2018-05-31T13:46:23.098Z,93722.81
2018-05-31T13:48:51.763Z,93713.42
2018-05-31T13:51:20.130Z,93703.86
2018-05-31T13:53:48.548Z,93694.37
2018-05-31T13:56:16.948Z,93689.50
2018-05-31T13:58:45.302Z,93686.30
2018-05-31T14:01:13.670Z,93687.59
2018-05-31T14:03:42.060Z,93693.38
2018-05-31T14:06:10.443Z,93689.59
2018-05-31T14:08:39.075Z,93695.91
2018-05-31T14:11:07.486Z,93701.43
2018-05-31T14:13:35.901Z,93693.75
2018-05-31T14:16:04.373Z,93698.75
2018-05-31T14:18:32.762Z,93707.41
2018-05-31T14:21:01.119Z,93709.39
2018-05-31T14:23:29.771Z,93710.34
2018-05-31T14:25:58.212Z,93707.35
2018-05-31T14:28:26.579Z,93707.46
2018-05-31T14:30:55.283Z,93702.94
2018-05-31T14:33:23.690Z,93709.94
2018-05-31T14:35:52.103Z,93706.56
2018-05-31T14:38:20.515Z,93705.11
2018-05-31T14:40:49.019Z,93703.88
2018-05-31T14:43:17.673Z,93718.97
2018-05-31T14:45:46.363Z,93712.63
2018-05-31T14:48:14.797Z,93704.59
2018-05-31T14:50:44.562Z,93710.22
2018-05-31T14:53:13.360Z,93700.41
2018-05-31T14:55:41.723Z,93699.72
2018-05-31T14:58:10.076Z,93695.23
2018-05-31T15:00:38.809Z,93686.09
2018-05-31T15:03:07.212Z,93676.30
2018-05-31T15:05:35.552Z,93681.56
2018-05-31T15:08:04.124Z,93679.41
2018-05-31T15:10:32.523Z,93676.17
2018-05-31T15:13:00.914Z,93673.30
2018-05-31T15:15:29.571Z,93672.81
2018-05-31T15:17:57.970Z,93671.41
2018-05-31T15:20:26.348Z,93659.53
2018-05-31T15:22:54.872Z,93670.84
2018-05-31T15:25:23.253Z,93661.03
2018-05-31T15:27:51.646Z,93651.19
2018-05-31T15:30:20.154Z,93643.22
2018-05-31T15:32:48.521Z,93644.52
2018-05-31T15:35:16.862Z,93639.05
2018-05-31T15:37:45.220Z,93639.61
2018-05-31T15:40:13.623Z,93634.63
2018-05-31T15:42:42.003Z,93634.73
2018-05-31T15:45:10.532Z,93629.85
2018-05-31T15:47:38.902Z,93625.59
2018-05-31T15:50:07.259Z,93618.34
2018-05-31T15:52:35.723Z,93616.34
2018-05-31T15:55:04.121Z,93615.98
2018-05-31T15:57:32.879Z,93624.04
2018-05-31T16:00:01.235Z,93627.93
2018-05-31T16:02:29.612Z,93630.05
2018-05-31T16:04:57.983Z,93627.83
2018-05-31T16:07:26.363Z,93631.95
2018-05-31T16:09:54.736Z,93628.32
2018-05-31T16:12:23.080Z,93614.47
2018-05-31T16:14:51.508Z,93617.81
2018-05-31T16:17:19.892Z,93624.79
2018-05-31T16:19:48.271Z,93610.45
2018-05-31T16:22:16.940Z,93628.16
2018-05-31T16:24:45.304Z,93624.07
2018-05-31T16:27:13.671Z,93626.22
2018-05-31T16:29:42.059Z,93634.56
2018-05-31T16:32:10.442Z,93634.00
2018-05-31T16:34:39.073Z,93620.15
2018-05-31T16:37:07.439Z,93626.22
2018-05-31T16:39:35.787Z,93628.84
2018-05-31T16:42:04.540Z,93630.61
2018-05-31T16:44:32.911Z,93643.17
2018-05-31T16:47:01.323Z,93634.98
2018-05-31T16:49:29.979Z,93628.30
2018-05-31T16:51:58.371Z,93630.54
2018-05-31T16:54:26.744Z,93632.93
2018-05-31T16:56:55.316Z,93626.44
2018-05-31T16:59:23.719Z,93610.53
2018-05-31T17:01:52.125Z,93612.88
2018-05-31T17:04:20.540Z,93608.97
2018-05-31T17:06:49.146Z,93596.80
2018-05-31T17:09:17.491Z,93615.34
2018-05-31T17:11:45.875Z,93629.41
2018-05-31T17:14:14.290Z,93634.41
2018-05-31T17:16:42.650Z,93636.18
2018-05-31T17:19:11.062Z,93648.44
2018-05-31T17:21:39.489Z,93657.19
2018-05-31T17:24:07.848Z,93649.89
2018-05-31T17:26:36.220Z,93653.31
2018-05-31T17:29:04.595Z,93631.71
2018-05-31T17:31:32.974Z,93638.95
2018-05-31T17:34:01.385Z,93641.94
2018-05-31T17:36:29.772Z,93628.90
2018-05-31T17:38:58.128Z,93639.34
2018-05-31T17:41:26.600Z,93658.17
2018-05-31T17:43:54.966Z,93670.72
2018-05-31T17:46:23.357Z,93657.91
2018-05-31T17:48:51.744Z,93671.20
2018-05-31T17:51:20.099Z,93686.26
2018-05-31T17:53:48.662Z,93700.31
2018-05-31T17:56:17.022Z,93708.44
2018-05-31T17:58:45.406Z,93696.82
2018-05-31T18:01:13.803Z,93697.28
2018-05-31T18:03:42.182Z,93702.52
2018-05-31T18:06:10.573Z,93704.11
2018-05-31T18:08:38.998Z,93721.37
2018-05-31T18:11:07.357Z,93718.73
2018-05-31T18:13:36.339Z,93720.21
2018-05-31T18:16:05.105Z,93724.62
2018-05-31T18:18:33.584Z,93727.70
2018-05-31T18:21:02.055Z,93732.48
2018-05-31T18:23:30.441Z,93729.76
2018-05-31T18:25:58.984Z,93720.16
2018-05-31T18:28:27.431Z,93717.59
2018-05-31T18:30:55.844Z,93719.09
2018-05-31T18:33:24.192Z,93707.89
2018-05-31T18:35:52.810Z,93688.66
2018-05-31T18:38:21.171Z,93677.57
2018-05-31T18:40:49.523Z,93679.45
2018-05-31T18:43:18.055Z,93672.10
2018-05-31T18:45:46.471Z,93684.12
2018-05-31T18:48:14.867Z,93679.47
2018-05-31T18:50:43.447Z,93687.66
2018-05-31T18:53:11.817Z,93688.95
2018-05-31T18:55:40.207Z,93690.05
2018-05-31T18:58:08.705Z,93685.53
2018-05-31T19:00:37.099Z,93676.22
2018-05-31T19:03:05.475Z,93678.24
2018-05-31T19:05:33.953Z,93677.20
2018-05-31T19:08:02.355Z,93687.48
2018-05-31T19:10:30.715Z,93692.57
2018-05-31T19:13:05.229Z,93697.23
2018-05-31T19:15:33.647Z,93705.89
2018-05-31T19:18:02.002Z,93707.13
2018-05-31T19:20:30.389Z,93707.80
2018-05-31T19:22:58.743Z,93711.86
2018-05-31T19:25:27.119Z,93712.03
2018-05-31T19:27:55.491Z,93705.65
2018-05-31T19:30:30.139Z,93708.19
2018-05-31T19:32:58.536Z,93712.30
2018-05-31T19:35:32.975Z,93704.83
2018-05-31T19:38:01.315Z,93706.16
2018-05-31T19:40:29.695Z,93722.57
2018-05-31T19:43:04.555Z,93737.16
2018-05-31T19:45:32.923Z,93748.61
2018-05-31T19:48:01.281Z,93750.08
2018-05-31T19:50:30.023Z,93747.81
2018-05-31T19:53:04.512Z,93750.08
2018-05-31T19:55:32.883Z,93748.77
2018-05-31T19:58:07.320Z,93740.14
2018-05-31T20:00:41.775Z,93741.59
2018-05-31T20:03:23.087Z,93747.98
2018-05-31T20:05:51.870Z,93764.95
2018-05-31T20:08:20.221Z,93776.34
2018-05-31T20:10:48.526Z,93787.72
2018-05-31T20:13:16.910Z,93807.65
2018-05-31T20:15:45.318Z,93808.58
2018-05-31T20:18:13.728Z,93822.38
2018-05-31T20:20:42.137Z,93837.70
2018-05-31T20:23:10.467Z,93846.76
2018-05-31T20:25:38.831Z,93862.46
2018-05-31T20:28:07.153Z,93876.36
2018-05-31T20:30:35.901Z,93911.37
2018-05-31T20:33:04.263Z,93911.66
2018-05-31T20:35:32.661Z,93920.34
2018-05-31T20:38:01.300Z,93901.13
2018-05-31T20:40:29.615Z,93865.16
2018-05-31T20:42:57.922Z,93866.52
2018-05-31T20:45:26.255Z,93885.12
2018-05-31T20:47:54.666Z,93871.78
2018-05-31T20:50:22.994Z,93875.68
2018-05-31T20:52:51.295Z,93882.99
2018-05-31T20:55:19.635Z,93874.59
2018-05-31T20:57:47.983Z,93880.86
2018-05-31T21:00:16.367Z,93895.89
2018-05-31T21:02:45.432Z,93910.94
2018-05-31T21:05:13.806Z,93916.56
2018-05-31T21:07:42.176Z,93929.02
2018-05-31T21:10:10.542Z,93943.95
2018-05-31T21:12:38.908Z,93952.97
2018-05-31T21:15:07.367Z,93950.77
2018-05-31T21:17:35.747Z,93928.42
2018-05-31T21:20:04.168Z,93911.72
2018-05-31T21:22:32.624Z,93915.25
2018-05-31T21:25:00.975Z,93928.61
2018-05-31T21:27:29.298Z,93922.42
2018-05-31T21:29:57.611Z,93912.86
2018-05-31T21:32:25.971Z,93909.42
2018-05-31T21:34:54.321Z,93913.78
2018-05-31T21:37:22.637Z,93914.03
2018-05-31T21:39:51.241Z,93932.86
2018-05-31T21:42:19.557Z,93951.66
2018-05-31T21:44:47.892Z,93949.45
2018-05-31T21:47:16.375Z,93950.63
2018-05-31T21:49:44.730Z,93948.89
2018-05-31T21:52:13.124Z,93939.61
2018-05-31T21:54:41.512Z,93938.05
2018-05-31T21:57:09.822Z,93921.38
2018-05-31T21:59:38.476Z,93905.69
2018-05-31T22:02:06.810Z,93899.05
2018-05-31T22:04:35.127Z,93898.24
2018-05-31T22:07:03.457Z,93894.59
2018-05-31T22:09:32.088Z,93883.53
2018-05-31T22:12:00.406Z,93875.97
2018-05-31T22:14:28.809Z,93887.31
2018-05-31T22:16:57.163Z,93898.33
2018-05-31T22:19:25.491Z,93900.16
2018-05-31T22:21:53.867Z,93895.30
2018-05-31T22:24:22.311Z,93898.48
2018-05-31T22:26:50.684Z,93896.58
2018-05-31T22:29:19.015Z,93891.91
2018-05-31T22:31:47.322Z,93890.37
2018-05-31T22:34:15.781Z,93886.50
2018-05-31T22:36:44.098Z,93897.92
2018-05-31T22:39:12.506Z,93906.73
2018-05-31T22:41:40.812Z,93920.83
2018-05-31T22:44:09.186Z,93933.56
2018-05-31T22:46:37.564Z,93938.55
2018-05-31T22:49:05.879Z,93942.28
2018-05-31T22:51:34.208Z,93933.22
2018-05-31T22:54:02.576Z,93941.59
2018-05-31T22:56:30.949Z,93947.48
2018-05-31T22:58:59.657Z,93967.36
2018-05-31T23:01:28.023Z,93986.11
2018-05-31T23:03:56.396Z,93998.30
2018-05-31T23:06:24.788Z,94016.86
2018-05-31T23:08:53.158Z,94031.86
2018-05-31T23:11:21.501Z,94038.83
2018-05-31T23:13:49.859Z,94035.42
2018-05-31T23:16:18.223Z,94033.61
2018-05-31T23:18:46.742Z,94034.48
2018-05-31T23:21:15.107Z,94030.02
2018-05-31T23:23:43.488Z,94016.41
2018-05-31T23:26:11.852Z,94011.38
2018-05-31T23:28:40.248Z,94010.00
2018-05-31T23:31:08.612Z,94013.81
2018-05-31T23:33:36.987Z,94018.73
2018-05-31T23:36:05.520Z,94027.59
2018-05-31T23:38:33.918Z,94024.16
2018-05-31T23:41:02.322Z,94024.59
2018-05-31T23:43:30.686Z,94029.91
2018-05-31T23:45:59.055Z,94029.02
2018-05-31T23:48:27.476Z,94032.87
2018-05-31T23:50:55.827Z,94039.53
2018-05-31T23:53:24.243Z,94041.13
2018-05-31T23:55:52.607Z,94048.61
2018-05-31T23:58:21.024Z,94050.72
